MRBO weather

Boca Naranjo Airport
Quepos, Puntarenas, Costa Rica

Public forecast

Using degrees Celsius for public forecast. Weather courtesy of forecast.io.

Closest aviation weather report (METAR) to Boca Naranjo Airport

Closest report is Tobias Bolanos International Airport, 33.9 nm (62.9 km) N. Retrieved 2020/02/24 18:00 UTC (10 minutes ago):

MRPV 241800Z 09010KT CAVOK 28/12 A3001 NOSIG

Closest aviation forecast (TAF) to Boca Naranjo Airport

Closest forecast is Tobias Bolanos International Airport, 33.9 nm (62.9 km) N. Retrieved 2020/02/24 18:15 UTC (0 seconds ago):

TAF TAF MRPV 241700Z 2418/2518 08012KT 9999 FEW045 TX29/2419Z TN17/2510Z PROB40 TEMPO 2421/2501 27006KT